Time;durP1;ratioP1;P1;durP2;ratioP2;P2;SDS_P1;SDS_P2;PMS_P1;PMS_P2;Temp;Humidity;BMP_temperature;BMP_pressure;BME280_temperature;BME280_humidity;BME280_pressure;Samples;Min_cycle;Max_cycle;Signal;HPM_P1;HPM_P2
2022/04/02 00:00:22;;;;;;;4.68;2.88;;;;;;;;;;4981064;28;98507;-79
2022/04/02 00:02:50;;;;;;;4.95;2.83;;;;;;;;;;4983806;28;95887;-78
2022/04/02 00:05:16;;;;;;;5.03;2.83;;;;;;;;;;4997510;28;95692;-75
2022/04/02 00:07:43;;;;;;;4.78;2.80;;;;;;;;;;4997273;28;95526;-76
2022/04/02 00:10:12;;;;;;;3.88;2.78;;;;;;;;;;4996948;28;92358;-76
2022/04/02 00:12:39;;;;;;;4.00;3.05;;;;;;;;;;4980767;28;94180;-78
2022/04/02 00:15:06;;;;;;;3.67;2.50;;;;;;;;;;4998116;28;93116;-77
2022/04/02 00:17:33;;;;;;;5.53;3.30;;;;;;;;;;4997298;28;92353;-77
2022/04/02 00:19:59;;;;;;;5.90;3.75;;;;;;;;;;4996984;28;94412;-78
2022/04/02 00:22:26;;;;;;;5.68;2.40;;;;;;;;;;4976763;28;98684;-82
2022/04/02 00:24:52;;;;;;;3.10;2.88;;;;;;;;;;4981681;28;92456;-78
2022/04/02 00:27:19;;;;;;;3.55;2.70;;;;;;;;;;4962991;28;94886;-80
2022/04/02 00:29:46;;;;;;;6.22;3.05;;;;;;;;;;4979738;28;92521;-79
2022/04/02 00:32:13;;;;;;;3.10;2.65;;;;;;;;;;4979566;28;93113;-78
2022/04/02 00:34:39;;;;;;;7.82;2.90;;;;;;;;;;4979493;28;96040;-80
2022/04/02 00:37:06;;;;;;;3.58;2.88;;;;;;;;;;4978949;28;92336;-79
2022/04/02 00:39:33;;;;;;;4.10;2.83;;;;;;;;;;4996426;28;95868;-80
2022/04/02 00:42:00;;;;;;;6.30;3.00;;;;;;;;;;4962755;28;94194;-80
2022/04/02 00:44:26;;;;;;;3.35;3.05;;;;;;;;;;4998875;28;92579;-77
2022/04/02 00:46:53;;;;;;;3.75;2.95;;;;;;;;;;4961000;28;98964;-78
2022/04/02 00:49:20;;;;;;;5.43;2.97;;;;;;;;;;4979521;28;92468;-78
2022/04/02 00:51:49;;;;;;;6.78;3.38;;;;;;;;;;4995461;28;94259;-77
2022/04/02 00:54:16;;;;;;;5.30;3.10;;;;;;;;;;4992292;28;95624;-78
2022/04/02 00:56:43;;;;;;;4.22;3.03;;;;;;;;;;4996688;28;92364;-77
2022/04/02 00:59:10;;;;;;;9.77;2.95;;;;;;;;;;4998254;28;92446;-77
2022/04/02 01:01:37;;;;;;;3.75;2.92;;;;;;;;;;4996847;28;95529;-77
2022/04/02 01:04:07;;;;;;;3.00;2.80;;;;;;;;;;5002313;28;91547;-78
2022/04/02 01:06:39;;;;;;;4.05;3.00;;;;;;;;;;5010617;28;94697;-78
2022/04/02 01:09:10;;;;;;;5.78;2.88;;;;;;;;;;4992016;28;93772;-78
2022/04/02 01:11:41;;;;;;;3.00;2.80;;;;;;;;;;5004106;28;94546;-78
2022/04/02 01:14:10;;;;;;;3.97;2.97;;;;;;;;;;4990863;28;94879;-77
2022/04/02 01:16:40;;;;;;;4.93;3.38;;;;;;;;;;4990930;28;92281;-76
2022/04/02 01:19:14;;;;;;;4.13;2.90;;;;;;;;;;4998870;28;93715;-77
2022/04/02 01:21:47;;;;;;;3.75;2.95;;;;;;;;;;4996957;28;95492;-77
2022/04/02 01:24:31;;;;;;;3.78;2.80;;;;;;;;;;4996959;28;92205;-78
2022/04/02 01:26:58;;;;;;;3.20;2.90;;;;;;;;;;4996554;28;95810;-80
2022/04/02 01:29:31;;;;;;;5.10;3.15;;;;;;;;;;4994623;28;94477;-77
2022/04/02 01:31:58;;;;;;;5.63;3.00;;;;;;;;;;4996291;28;94498;-78
2022/04/02 01:34:31;;;;;;;5.45;3.08;;;;;;;;;;4995722;28;95370;-79
2022/04/02 01:37:03;;;;;;;6.55;3.50;;;;;;;;;;4978690;28;94644;-79
2022/04/02 01:39:36;;;;;;;7.13;2.80;;;;;;;;;;4996082;28;98439;-77
2022/04/02 01:42:06;;;;;;;4.30;3.05;;;;;;;;;;4995817;28;94613;-78
2022/04/02 01:44:44;;;;;;;3.70;3.15;;;;;;;;;;4995986;28;92280;-79
2022/04/02 01:47:10;;;;;;;3.92;3.22;;;;;;;;;;4997008;28;92864;-78
2022/04/02 01:49:37;;;;;;;3.78;2.92;;;;;;;;;;4996024;28;95650;-79
2022/04/02 01:52:03;;;;;;;4.85;3.40;;;;;;;;;;4999003;28;92332;-78
2022/04/02 01:54:30;;;;;;;4.15;2.90;;;;;;;;;;4995995;28;95359;-77
2022/04/02 01:57:05;;;;;;;6.88;3.03;;;;;;;;;;4995970;28;92345;-79
2022/04/02 01:59:32;;;;;;;3.38;3.05;;;;;;;;;;5012661;28;94864;-78
2022/04/02 02:02:00;;;;;;;6.28;3.00;;;;;;;;;;5010748;28;97877;-76
2022/04/02 02:04:27;;;;;;;3.78;3.15;;;;;;;;;;4997118;28;93725;-77
2022/04/02 02:06:54;;;;;;;5.13;2.92;;;;;;;;;;4996812;28;93144;-77
2022/04/02 02:09:22;;;;;;;4.13;3.28;;;;;;;;;;4995532;28;95761;-77
2022/04/02 02:11:56;;;;;;;4.90;3.17;;;;;;;;;;4995791;28;92314;-81
2022/04/02 02:14:39;;;;;;;6.28;3.10;;;;;;;;;;4998763;28;94937;-78
2022/04/02 02:17:15;;;;;;;8.70;3.03;;;;;;;;;;5012048;28;92322;-79
2022/04/02 02:19:46;;;;;;;3.93;3.00;;;;;;;;;;4996437;28;95259;-78
2022/04/02 02:22:13;;;;;;;2.90;2.67;;;;;;;;;;4996496;28;92917;-79
2022/04/02 02:24:39;;;;;;;4.78;2.70;;;;;;;;;;4995815;28;92290;-78
2022/04/02 02:27:08;;;;;;;3.15;2.60;;;;;;;;;;4994045;28;95580;-77
2022/04/02 02:29:35;;;;;;;2.78;2.47;;;;;;;;;;4996403;28;93051;-78
2022/04/02 02:32:15;;;;;;;3.37;2.73;;;;;;;;;;4995606;28;92538;-78
2022/04/02 02:37:30;;;;;;;3.40;2.80;;;;;;;;;;4995532;28;92449;-77
2022/04/02 02:40:03;;;;;;;4.72;2.53;;;;;;;;;;4995546;28;95727;-76
2022/04/02 02:42:30;;;;;;;7.03;2.55;;;;;;;;;;4994711;28;95801;-78
2022/04/02 02:45:07;;;;;;;3.72;3.05;;;;;;;;;;4995696;28;91626;-77
2022/04/02 02:47:33;;;;;;;4.03;3.13;;;;;;;;;;4995058;28;93469;-77
2022/04/02 02:50:00;;;;;;;3.05;2.83;;;;;;;;;;4998088;28;95412;-78
2022/04/02 02:52:37;;;;;;;4.53;2.80;;;;;;;;;;5013888;28;94812;-80
2022/04/02 02:55:03;;;;;;;4.97;2.75;;;;;;;;;;4998185;28;98579;-78
2022/04/02 02:57:36;;;;;;;3.85;2.75;;;;;;;;;;4983300;28;96423;-78
2022/04/02 03:00:03;;;;;;;6.60;2.72;;;;;;;;;;4981039;28;94557;-78
2022/04/02 03:02:30;;;;;;;3.15;2.85;;;;;;;;;;4980654;28;95874;-78
2022/04/02 03:04:57;;;;;;;4.93;2.67;;;;;;;;;;4997505;28;92475;-78
2022/04/02 03:07:34;;;;;;;4.80;2.70;;;;;;;;;;4980510;28;94677;-77
2022/04/02 03:10:02;;;;;;;;;;;;;;;;;;4981396;28;93812;-79
2022/04/02 03:12:30;;;;;;;5.10;2.20;;;;;;;;;;4980782;28;92395;-76
2022/04/02 03:15:01;;;;;;;6.05;2.75;;;;;;;;;;4980807;28;94646;-78
2022/04/02 03:17:30;;;;;;;2.67;2.50;;;;;;;;;;4978740;28;98039;-77
2022/04/02 03:19:58;;;;;;;5.82;2.88;;;;;;;;;;4983175;28;92400;-78
2022/04/02 03:22:27;;;;;;;4.40;3.05;;;;;;;;;;4980271;28;95428;-77
2022/04/02 03:24:54;;;;;;;3.00;2.70;;;;;;;;;;4980380;28;92492;-78
2022/04/02 03:27:21;;;;;;;3.67;2.50;;;;;;;;;;4997611;28;93249;-78
2022/04/02 03:29:50;;;;;;;4.60;2.88;;;;;;;;;;4997681;28;95443;-77
2022/04/02 03:32:17;;;;;;;3.55;2.63;;;;;;;;;;4997767;28;92333;-77
2022/04/02 03:34:43;;;;;;;3.15;2.58;;;;;;;;;;4998364;28;95465;-78
2022/04/02 03:37:10;;;;;;;3.13;2.83;;;;;;;;;;4998176;28;92869;-77
2022/04/02 03:39:39;;;;;;;5.65;2.80;;;;;;;;;;4997771;28;92364;-78
2022/04/02 03:42:07;;;;;;;2.92;2.72;;;;;;;;;;4999195;28;95961;-77
2022/04/02 03:44:33;;;;;;;3.13;2.83;;;;;;;;;;4998991;28;92436;-79
2022/04/02 03:47:10;;;;;;;4.80;2.97;;;;;;;;;;4981096;28;94848;-77
2022/04/02 03:49:50;;;;;;;3.28;2.63;;;;;;;;;;4997559;28;95789;-77
2022/04/02 03:52:26;;;;;;;3.00;2.75;;;;;;;;;;4997626;28;92523;-78
2022/04/02 03:55:05;;;;;;;4.38;2.58;;;;;;;;;;4998002;28;92415;-77
2022/04/02 03:57:33;;;;;;;4.35;2.67;;;;;;;;;;5013759;28;95233;-78
2022/04/02 03:59:59;;;;;;;3.00;2.78;;;;;;;;;;4997136;28;91628;-78
2022/04/02 04:02:26;;;;;;;5.22;2.75;;;;;;;;;;4998725;28;92684;-78
2022/04/02 04:04:53;;;;;;;3.65;2.72;;;;;;;;;;5000254;28;96187;-78
2022/04/02 04:07:21;;;;;;;6.05;2.63;;;;;;;;;;4995715;28;95456;-78
2022/04/02 04:09:48;;;;;;;3.10;2.90;;;;;;;;;;4997071;28;93841;-77
2022/04/02 04:12:17;;;;;;;5.75;2.90;;;;;;;;;;5013806;28;92456;-78
2022/04/02 04:14:46;;;;;;;7.20;2.90;;;;;;;;;;4997108;28;95220;-76
2022/04/02 04:17:14;;;;;;;7.88;2.90;;;;;;;;;;4996995;28;95283;-77
2022/04/02 04:19:42;;;;;;;5.82;3.03;;;;;;;;;;4996924;28;92800;-77
2022/04/02 04:22:10;;;;;;;5.07;3.22;;;;;;;;;;4998119;28;93172;-79
2022/04/02 04:24:36;;;;;;;6.90;2.97;;;;;;;;;;4997058;28;95529;-78
2022/04/02 04:27:04;;;;;;;4.60;3.10;;;;;;;;;;5000279;28;92446;-78
2022/04/02 04:29:32;;;;;;;5.80;3.10;;;;;;;;;;5013298;28;96345;-77
2022/04/02 04:31:59;;;;;;;4.05;3.33;;;;;;;;;;4995238;28;94805;-80
2022/04/02 04:34:25;;;;;;;3.55;3.25;;;;;;;;;;4996772;28;98164;-78
2022/04/02 04:36:52;;;;;;;3.58;3.15;;;;;;;;;;4997950;28;93517;-77
2022/04/02 04:39:18;;;;;;;8.93;2.80;;;;;;;;;;4996624;28;92662;-79
2022/04/02 04:41:47;;;;;;;7.82;3.45;;;;;;;;;;4996909;28;94973;-76
2022/04/02 04:44:15;;;;;;;6.65;3.38;;;;;;;;;;4996485;28;95494;-78
2022/04/02 04:46:42;;;;;;;3.45;3.15;;;;;;;;;;4999655;28;92303;-78
2022/04/02 04:49:12;;;;;;;6.63;3.80;;;;;;;;;;4998343;28;93035;-77
2022/04/02 04:51:41;;;;;;;8.13;3.80;;;;;;;;;;4996210;28;92382;-79
2022/04/02 04:54:09;;;;;;;4.60;3.28;;;;;;;;;;4996829;28;94854;-77
2022/04/02 04:56:40;;;;;;;4.55;3.70;;;;;;;;;;4994519;28;97554;-78
2022/04/02 04:59:09;;;;;;;4.32;3.35;;;;;;;;;;4996597;28;92350;-75
2022/04/02 05:01:35;;;;;;;3.88;3.58;;;;;;;;;;4996546;28;95207;-78
2022/04/02 05:04:04;;;;;;;3.83;3.30;;;;;;;;;;4996121;28;95958;-78
2022/04/02 05:06:35;;;;;;;8.57;3.92;;;;;;;;;;4996341;28;92568;-80
2022/04/02 05:09:02;;;;;;;5.20;3.90;;;;;;;;;;5000422;28;92759;-76
2022/04/02 05:11:34;;;;;;;7.90;3.83;;;;;;;;;;4995875;28;92454;-77
2022/04/02 05:14:04;;;;;;;4.10;3.75;;;;;;;;;;4997020;28;95135;-79
2022/04/02 05:16:31;;;;;;;4.38;3.40;;;;;;;;;;5012571;28;94874;-78
2022/04/02 05:18:59;;;;;;;4.43;4.00;;;;;;;;;;4995368;28;92975;-77
2022/04/02 05:21:25;;;;;;;7.80;4.10;;;;;;;;;;4994086;28;95475;-77
2022/04/02 05:23:52;;;;;;;4.72;3.90;;;;;;;;;;4997216;28;93602;-77
2022/04/02 05:26:19;;;;;;;6.78;4.00;;;;;;;;;;4996244;28;93793;-77
2022/04/02 05:28:52;;;;;;;7.50;4.03;;;;;;;;;;4996297;28;94813;-78
2022/04/02 05:31:18;;;;;;;5.93;4.20;;;;;;;;;;4999208;28;92893;-77
2022/04/02 05:33:45;;;;;;;7.68;4.60;;;;;;;;;;4996136;28;93725;-77
2022/04/02 05:36:15;;;;;;;6.68;4.72;;;;;;;;;;4995988;28;95943;-77
2022/04/02 05:38:41;;;;;;;7.30;4.45;;;;;;;;;;4996819;28;91558;-76
2022/04/02 05:41:09;;;;;;;5.18;4.40;;;;;;;;;;4995861;28;95631;-76
2022/04/02 05:43:38;;;;;;;6.22;4.00;;;;;;;;;;4995922;28;96184;-76
2022/04/02 05:46:05;;;;;;;5.45;4.05;;;;;;;;;;4993601;28;94758;-77
2022/04/02 05:48:31;;;;;;;4.40;3.83;;;;;;;;;;4997185;28;95144;-76
2022/04/02 05:50:58;;;;;;;8.93;4.25;;;;;;;;;;4996583;28;94951;-77
2022/04/02 05:53:24;;;;;;;4.93;3.95;;;;;;;;;;5000427;28;92299;-77
2022/04/02 05:55:51;;;;;;;5.80;4.40;;;;;;;;;;4996861;28;93917;-76
2022/04/02 05:58:17;;;;;;;13.85;4.20;;;;;;;;;;4996980;28;92115;-76
2022/04/02 06:00:44;;;;;;;5.20;3.97;;;;;;;;;;4996764;28;93553;-78
2022/04/02 06:03:14;;;;;;;7.43;4.22;;;;;;;;;;4996834;28;94100;-77
2022/04/02 06:05:41;;;;;;;6.03;3.67;;;;;;;;;;4995761;28;92414;-77
2022/04/02 06:08:07;;;;;;;4.28;3.83;;;;;;;;;;4996975;28;93636;-77
2022/04/02 06:10:33;;;;;;;4.97;3.53;;;;;;;;;;4994853;28;95399;-76
2022/04/02 06:13:01;;;;;;;5.20;3.58;;;;;;;;;;4996311;28;92359;-76
2022/04/02 06:15:27;;;;;;;5.15;3.60;;;;;;;;;;4999750;28;94466;-77
2022/04/02 06:17:54;;;;;;;4.47;3.58;;;;;;;;;;5011983;28;92337;-76
2022/04/02 06:20:20;;;;;;;4.50;3.30;;;;;;;;;;4996623;28;93514;-77
2022/04/02 06:22:46;;;;;;;6.88;3.50;;;;;;;;;;4995209;28;93520;-77
2022/04/02 06:25:13;;;;;;;4.72;4.20;;;;;;;;;;4986242;28;92448;-80
2022/04/02 06:27:43;;;;;;;3.58;3.20;;;;;;;;;;4980618;28;94927;-78
2022/04/02 06:30:14;;;;;;;5.55;3.88;;;;;;;;;;4980472;28;93326;-79
2022/04/02 06:32:41;;;;;;;7.07;4.15;;;;;;;;;;4962719;28;92266;-77
2022/04/02 06:35:12;;;;;;;5.13;4.03;;;;;;;;;;4994025;28;95700;-75
2022/04/02 06:37:39;;;;;;;7.70;4.70;;;;;;;;;;4981994;28;95016;-75
2022/04/02 06:40:07;;;;;;;7.95;4.38;;;;;;;;;;4979870;28;93194;-75
2022/04/02 06:42:33;;;;;;;5.78;4.05;;;;;;;;;;4980089;28;93571;-75
2022/04/02 06:45:01;;;;;;;5.80;3.88;;;;;;;;;;4978772;28;93207;-74
2022/04/02 06:47:29;;;;;;;7.90;4.15;;;;;;;;;;4979583;28;92359;-74
2022/04/02 06:49:56;;;;;;;4.25;3.88;;;;;;;;;;4979481;28;93660;-74
2022/04/02 06:52:23;;;;;;;6.03;3.65;;;;;;;;;;4980224;28;91691;-75
2022/04/02 06:54:49;;;;;;;10.63;4.35;;;;;;;;;;4979678;28;92183;-76
2022/04/02 06:57:16;;;;;;;6.80;4.05;;;;;;;;;;4982740;28;93008;-76
2022/04/02 06:59:43;;;;;;;14.57;3.95;;;;;;;;;;4978148;28;95613;-76
2022/04/02 07:02:09;;;;;;;14.75;3.83;;;;;;;;;;4978672;28;93263;-76
2022/04/02 07:04:35;;;;;;;13.02;3.90;;;;;;;;;;4979826;28;93573;-75
2022/04/02 07:07:02;;;;;;;4.03;3.60;;;;;;;;;;4979227;28;94597;-75
2022/04/02 07:09:29;;;;;;;9.30;3.80;;;;;;;;;;4982107;28;93195;-77
2022/04/02 07:11:58;;;;;;;4.10;3.70;;;;;;;;;;4989534;28;92355;-78
2022/04/02 07:14:24;;;;;;;7.88;4.35;;;;;;;;;;4985752;28;92898;-75
2022/04/02 07:16:50;;;;;;;8.10;3.60;;;;;;;;;;5006347;28;93392;-76
2022/04/02 07:19:19;;;;;;;5.65;3.70;;;;;;;;;;5011999;28;92138;-76
2022/04/02 07:21:45;;;;;;;9.32;3.80;;;;;;;;;;5005378;28;93771;-76
2022/04/02 07:24:12;;;;;;;7.57;3.92;;;;;;;;;;4999251;28;95348;-75
2022/04/02 07:26:39;;;;;;;4.78;3.47;;;;;;;;;;4999962;28;93966;-75
2022/04/02 07:29:09;;;;;;;3.45;3.15;;;;;;;;;;4999684;28;93198;-74
2022/04/02 07:31:35;;;;;;;9.10;3.45;;;;;;;;;;4999672;28;92467;-75
2022/04/02 07:34:02;;;;;;;6.80;3.67;;;;;;;;;;4998955;28;93469;-75
2022/04/02 07:36:39;;;;;;;5.85;3.80;;;;;;;;;;4997488;28;95995;-75
2022/04/02 07:39:21;;;;;;;4.45;3.60;;;;;;;;;;4999210;28;92250;-76
2022/04/02 07:42:02;;;;;;;4.03;3.65;;;;;;;;;;5002029;28;94385;-75
2022/04/02 07:44:28;;;;;;;4.87;3.60;;;;;;;;;;4999006;28;92561;-75
2022/04/02 07:46:56;;;;;;;4.55;3.72;;;;;;;;;;4996669;28;93501;-76
2022/04/02 07:49:23;;;;;;;11.13;4.07;;;;;;;;;;4997136;28;95302;-74
2022/04/02 07:51:52;;;;;;;6.63;4.03;;;;;;;;;;4998470;28;92282;-74
2022/04/02 07:54:20;;;;;;;4.20;3.90;;;;;;;;;;4998828;28;93928;-74
2022/04/02 07:56:48;;;;;;;6.68;4.10;;;;;;;;;;4997514;28;95874;-75
2022/04/02 07:59:22;;;;;;;7.55;3.97;;;;;;;;;;4998772;28;92340;-73
2022/04/02 08:01:49;;;;;;;7.13;3.70;;;;;;;;;;4998533;28;92992;-75
2022/04/02 08:04:16;;;;;;;8.18;4.30;;;;;;;;;;5001702;28;93467;-75
2022/04/02 08:06:43;;;;;;;8.73;4.32;;;;;;;;;;4997812;28;92954;-75
2022/04/02 08:09:12;;;;;;;6.25;4.20;;;;;;;;;;4997277;28;95247;-75
2022/04/02 08:11:39;;;;;;;7.78;3.70;;;;;;;;;;4998319;28;92429;-73
2022/04/02 08:14:07;;;;;;;4.38;3.53;;;;;;;;;;4996412;28;96747;-72
2022/04/02 08:16:34;;;;;;;11.50;4.00;;;;;;;;;;4998048;28;93681;-73
2022/04/02 08:19:08;;;;;;;10.85;3.65;;;;;;;;;;4997992;28;92267;-74
2022/04/02 08:21:34;;;;;;;4.78;3.10;;;;;;;;;;4998591;28;93856;-75
2022/04/02 08:24:02;;;;;;;5.90;4.13;;;;;;;;;;4995672;28;93382;-75
2022/04/02 08:26:39;;;;;;;3.67;3.35;;;;;;;;;;4998769;28;92432;-78
2022/04/02 08:29:24;;;;;;;5.40;3.97;;;;;;;;;;4997330;28;94093;-77
2022/04/02 08:32:07;;;;;;;3.90;3.30;;;;;;;;;;4997871;28;92814;-76
2022/04/02 08:34:52;;;;;;;7.65;3.63;;;;;;;;;;4994185;28;92987;-76
2022/04/02 08:37:19;;;;;;;3.88;3.28;;;;;;;;;;4992276;28;93684;-75
2022/04/02 08:39:58;;;;;;;5.05;3.42;;;;;;;;;;4995343;28;95468;-75
2022/04/02 08:42:40;;;;;;;5.35;4.07;;;;;;;;;;4996646;28;96632;-77
2022/04/02 08:45:08;;;;;;;4.70;3.45;;;;;;;;;;4993918;28;93587;-76
2022/04/02 08:47:54;;;;;;;3.45;3.15;;;;;;;;;;4996298;28;92286;-76
2022/04/02 08:50:27;;;;;;;4.63;3.25;;;;;;;;;;4998684;28;93720;-75
2022/04/02 08:52:55;;;;;;;4.72;3.40;;;;;;;;;;4997203;28;92271;-75
2022/04/02 08:55:28;;;;;;;4.75;3.33;;;;;;;;;;4997405;28;93645;-74
2022/04/02 08:57:54;;;;;;;7.57;3.60;;;;;;;;;;4996991;28;92544;-76
2022/04/02 09:00:24;;;;;;;4.10;3.42;;;;;;;;;;4996563;28;92267;-75
2022/04/02 09:03:11;;;;;;;4.50;3.35;;;;;;;;;;4997305;28;93388;-75
2022/04/02 09:05:53;;;;;;;3.78;3.47;;;;;;;;;;4991492;28;96441;-75
2022/04/02 09:08:41;;;;;;;3.85;3.40;;;;;;;;;;4993976;28;92465;-75
2022/04/02 09:11:11;;;;;;;4.28;3.88;;;;;;;;;;4996077;28;94005;-75
2022/04/02 09:13:57;;;;;;;5.53;3.95;;;;;;;;;;4996869;28;92418;-75
2022/04/02 09:16:27;;;;;;;6.22;4.07;;;;;;;;;;4994768;28;93320;-74
2022/04/02 09:18:56;;;;;;;3.83;3.53;;;;;;;;;;4995633;28;93861;-72
2022/04/02 09:21:41;;;;;;;6.75;3.50;;;;;;;;;;4996526;28;92990;-76
2022/04/02 09:24:13;;;;;;;6.68;3.78;;;;;;;;;;4992432;28;92711;-75
2022/04/02 09:26:40;;;;;;;;;;;;;;;;;;4997389;28;93297;-75
2022/04/02 09:29:14;;;;;;;3.75;2.72;;;;;;;;;;4995167;28;117455;-75
2022/04/02 09:31:44;;;;;;;3.95;3.17;;;;;;;;;;4995162;28;94779;-74
2022/04/02 09:34:29;;;;;;;4.68;2.60;;;;;;;;;;4999768;28;93293;-75
2022/04/02 09:37:14;;;;;;;3.40;2.60;;;;;;;;;;4993579;28;92456;-75
2022/04/02 09:39:58;;;;;;;2.65;2.45;;;;;;;;;;4995236;28;93103;-76
2022/04/02 09:42:41;;;;;;;4.18;3.78;;;;;;;;;;4993049;28;93402;-76
2022/04/02 09:45:12;;;;;;;3.85;2.65;;;;;;;;;;4996373;28;93280;-76
2022/04/02 09:47:48;;;;;;;5.00;3.10;;;;;;;;;;4995285;28;94671;-76
2022/04/02 09:50:16;;;;;;;6.20;3.53;;;;;;;;;;4996210;28;91575;-77
2022/04/02 09:52:52;;;;;;;6.95;3.55;;;;;;;;;;4996300;28;92759;-76
2022/04/02 09:55:29;;;;;;;5.75;3.45;;;;;;;;;;4990826;28;94966;-71
2022/04/02 09:58:14;;;;;;;3.72;3.25;;;;;;;;;;4993714;28;95211;-72
2022/04/02 10:00:44;;;;;;;4.95;3.20;;;;;;;;;;4998119;28;93080;-73
2022/04/02 10:03:32;;;;;;;3.83;3.40;;;;;;;;;;4999706;28;92393;-72
2022/04/02 10:06:01;;;;;;;5.80;3.50;;;;;;;;;;4996264;28;92701;-72
2022/04/02 10:08:46;;;;;;;3.05;2.78;;;;;;;;;;4995307;28;93198;-72
2022/04/02 10:11:14;;;;;;;5.43;2.60;;;;;;;;;;4997897;28;92435;-72
2022/04/02 10:13:44;;;;;;;7.25;3.20;;;;;;;;;;4994572;28;93345;-76
2022/04/02 10:16:12;;;;;;;4.63;3.13;;;;;;;;;;4999702;28;93654;-75
2022/04/02 10:18:41;;;;;;;3.45;3.13;;;;;;;;;;4999299;28;93533;-76
2022/04/02 10:21:09;;;;;;;2.80;2.60;;;;;;;;;;5002107;28;93402;-76
2022/04/02 10:23:37;;;;;;;5.45;2.85;;;;;;;;;;4997814;28;94684;-75
2022/04/02 10:26:12;;;;;;;4.28;2.90;;;;;;;;;;4995506;28;95152;-75
2022/04/02 10:28:47;;;;;;;3.85;2.63;;;;;;;;;;4995473;28;94939;-74
2022/04/02 10:31:18;;;;;;;4.78;2.85;;;;;;;;;;4995305;28;92350;-75
2022/04/02 10:33:48;;;;;;;3.78;2.85;;;;;;;;;;4998730;28;93138;-75
2022/04/02 10:36:15;;;;;;;2.58;2.22;;;;;;;;;;4999110;28;93863;-75
2022/04/02 10:38:44;;;;;;;4.38;2.65;;;;;;;;;;4999165;28;93369;-75
2022/04/02 10:41:11;;;;;;;4.50;2.85;;;;;;;;;;4996140;28;93596;-75
2022/04/02 10:43:41;;;;;;;6.15;2.22;;;;;;;;;;5001977;28;93515;-75
2022/04/02 10:46:08;;;;;;;3.53;2.63;;;;;;;;;;4998998;28;93631;-75
2022/04/02 10:48:47;;;;;;;3.50;2.35;;;;;;;;;;4996226;28;95528;-75
2022/04/02 10:51:13;;;;;;;2.67;2.13;;;;;;;;;;4994209;28;92346;-75
2022/04/02 10:53:44;;;;;;;3.30;2.17;;;;;;;;;;4998693;28;95380;-75
2022/04/02 10:56:15;;;;;;;2.83;2.33;;;;;;;;;;4998543;28;95183;-75
2022/04/02 10:58:48;;;;;;;2.45;2.28;;;;;;;;;;4993656;28;92421;-77
2022/04/02 11:01:17;;;;;;;2.55;2.35;;;;;;;;;;4995189;28;93308;-75
2022/04/02 11:03:46;;;;;;;2.67;2.40;;;;;;;;;;4998820;28;93087;-76
2022/04/02 11:06:32;;;;;;;3.50;2.70;;;;;;;;;;5002135;28;91435;-77
2022/04/02 11:09:00;;;;;;;7.18;2.60;;;;;;;;;;4994939;28;93404;-75
2022/04/02 11:11:27;;;;;;;3.80;3.25;;;;;;;;;;4998431;28;93301;-75
2022/04/02 11:14:03;;;;;;;10.75;3.05;;;;;;;;;;4997180;28;94788;-75
2022/04/02 11:16:39;;;;;;;3.38;3.03;;;;;;;;;;4998696;28;92959;-74
2022/04/02 11:21:54;;;;;;;3.53;2.92;;;;;;;;;;4994289;28;93990;-76
2022/04/02 11:24:23;;;;;;;8.43;3.03;;;;;;;;;;4998286;28;93035;-78
2022/04/02 11:26:50;;;;;;;3.08;2.40;;;;;;;;;;5001714;28;92440;-75
2022/04/02 11:29:18;;;;;;;2.35;2.15;;;;;;;;;;4998047;28;93537;-77
2022/04/02 11:31:45;;;;;;;3.13;2.40;;;;;;;;;;4999304;28;91541;-75
2022/04/02 11:34:12;;;;;;;2.55;2.25;;;;;;;;;;4998365;28;92543;-75
2022/04/02 11:36:43;;;;;;;7.30;2.35;;;;;;;;;;4998096;28;92413;-75
2022/04/02 11:39:16;;;;;;;2.05;1.92;;;;;;;;;;4996400;28;94732;-75
2022/04/02 11:41:43;;;;;;;3.05;2.50;;;;;;;;;;4998237;28;95838;-75
2022/04/02 11:44:14;;;;;;;4.80;2.10;;;;;;;;;;4998150;28;93877;-74
2022/04/02 11:46:59;;;;;;;6.25;2.13;;;;;;;;;;4997974;28;92429;-75
2022/04/02 11:49:36;;;;;;;2.50;2.30;;;;;;;;;;4982722;28;94942;-74
2022/04/02 11:52:03;;;;;;;2.97;2.25;;;;;;;;;;4994673;28;92390;-76
2022/04/02 11:54:30;;;;;;;4.93;2.50;;;;;;;;;;4993938;28;92837;-74
2022/04/02 11:57:17;;;;;;;3.60;2.42;;;;;;;;;;4998271;28;92310;-76
2022/04/02 11:59:54;;;;;;;2.10;2.00;;;;;;;;;;4993519;28;93262;-74
2022/04/02 12:02:35;;;;;;;2.13;1.90;;;;;;;;;;4998162;28;92790;-77
2022/04/02 12:05:04;;;;;;;2.75;1.48;;;;;;;;;;4996236;28;95912;-74
2022/04/02 12:07:38;;;;;;;3.15;2.20;;;;;;;;;;4997996;28;92526;-73
2022/04/02 12:10:25;;;;;;;2.05;1.95;;;;;;;;;;4995305;28;93388;-74
2022/04/02 12:12:53;;;;;;;3.20;1.80;;;;;;;;;;5000783;28;94032;-75
2022/04/02 12:15:20;;;;;;;1.75;1.63;;;;;;;;;;4998006;28;92796;-76
2022/04/02 12:17:53;;;;;;;2.33;2.08;;;;;;;;;;4997794;28;94139;-76
2022/04/02 12:20:27;;;;;;;4.10;2.38;;;;;;;;;;4996786;28;92365;-75
2022/04/02 12:23:13;;;;;;;2.50;2.22;;;;;;;;;;4997874;28;93090;-76
2022/04/02 12:25:41;;;;;;;3.83;1.90;;;;;;;;;;4996994;28;95100;-76
2022/04/02 12:28:14;;;;;;;1.85;1.75;;;;;;;;;;5005013;28;92390;-74
2022/04/02 12:30:41;;;;;;;2.00;1.90;;;;;;;;;;4999846;28;95579;-76
2022/04/02 12:33:08;;;;;;;3.05;2.15;;;;;;;;;;5003567;28;93574;-76
2022/04/02 12:35:37;;;;;;;2.70;2.17;;;;;;;;;;5008716;28;93662;-75
2022/04/02 12:38:05;;;;;;;2.85;2.25;;;;;;;;;;5004691;28;93509;-76
2022/04/02 12:40:33;;;;;;;5.20;2.10;;;;;;;;;;4997921;28;92314;-76
2022/04/02 12:43:03;;;;;;;2.90;1.80;;;;;;;;;;4998251;28;92864;-75
2022/04/02 12:45:30;;;;;;;2.22;2.10;;;;;;;;;;4993272;28;93556;-76
2022/04/02 12:48:04;;;;;;;1.95;1.85;;;;;;;;;;4997504;28;91672;-77
2022/04/02 12:50:35;;;;;;;2.78;2.30;;;;;;;;;;4997307;28;94443;-76
2022/04/02 12:53:02;;;;;;;3.78;2.20;;;;;;;;;;4989886;28;95737;-75
2022/04/02 12:55:30;;;;;;;6.88;2.10;;;;;;;;;;4995377;28;94759;-76
2022/04/02 12:58:10;;;;;;;4.20;2.20;;;;;;;;;;5000086;28;95171;-77
2022/04/02 13:00:38;;;;;;;5.15;2.30;;;;;;;;;;4996873;28;93113;-78
2022/04/02 13:03:05;;;;;;;4.30;2.42;;;;;;;;;;4996726;28;94120;-77
2022/04/02 13:05:46;;;;;;;4.28;2.22;;;;;;;;;;4996799;28;93543;-78
2022/04/02 13:08:21;;;;;;;2.40;2.20;;;;;;;;;;4995857;28;93278;-76
2022/04/02 13:10:51;;;;;;;2.67;2.47;;;;;;;;;;4997271;28;92838;-75
2022/04/02 13:13:30;;;;;;;3.15;2.10;;;;;;;;;;4997590;28;92402;-77
2022/04/02 13:15:57;;;;;;;2.42;2.22;;;;;;;;;;4993587;28;92284;-77
2022/04/02 13:21:09;;;;;;;3.60;1.95;;;;;;;;;;4992868;28;95080;-79
2022/04/02 13:23:38;;;;;;;2.75;2.20;;;;;;;;;;4996724;28;95662;-79
2022/04/02 13:26:05;;;;;;;3.70;1.98;;;;;;;;;;4996770;28;93840;-77
2022/04/02 13:28:45;;;;;;;5.55;3.10;;;;;;;;;;4996462;28;92724;-75
2022/04/02 13:31:13;;;;;;;3.10;2.25;;;;;;;;;;4993766;28;94045;-77
2022/04/02 13:33:49;;;;;;;6.07;2.40;;;;;;;;;;4995965;28;94010;-76
2022/04/02 13:36:34;;;;;;;2.92;2.10;;;;;;;;;;4996656;28;92340;-75
2022/04/02 13:39:06;;;;;;;3.47;1.73;;;;;;;;;;4996708;28;93733;-76
2022/04/02 13:41:35;;;;;;;3.20;1.88;;;;;;;;;;4995147;28;94490;-77
2022/04/02 13:44:03;;;;;;;5.50;2.10;;;;;;;;;;4996453;28;93576;-75
2022/04/02 13:46:34;;;;;;;4.82;2.53;;;;;;;;;;4994431;28;95911;-77
2022/04/02 13:49:01;;;;;;;;;;;;;;;;;;4996583;28;92424;-75
2022/04/02 13:51:48;;;;;;;2.30;2.00;;;;;;;;;;4996412;28;94992;-76
2022/04/02 13:54:23;;;;;;;4.07;2.25;;;;;;;;;;4992857;28;93603;-76
2022/04/02 13:56:54;;;;;;;2.42;2.03;;;;;;;;;;4996277;28;92554;-77
2022/04/02 13:59:25;;;;;;;2.28;2.15;;;;;;;;;;4996016;28;92867;-76
2022/04/02 14:01:52;;;;;;;;;;;;;;;;;;4996537;28;93388;-78
2022/04/02 14:04:30;;;;;;;3.67;2.03;;;;;;;;;;4994985;28;117028;-76
2022/04/02 14:06:59;;;;;;;2.03;1.92;;;;;;;;;;4995776;28;94550;-77
2022/04/02 14:09:28;;;;;;;2.55;2.25;;;;;;;;;;4995950;28;92481;-78
2022/04/02 14:11:55;;;;;;;7.70;2.10;;;;;;;;;;4994749;28;94843;-77
2022/04/02 14:14:31;;;;;;;2.10;1.90;;;;;;;;;;4996054;28;93674;-76
2022/04/02 14:17:02;;;;;;;6.32;2.25;;;;;;;;;;4996127;28;92338;-75
2022/04/02 14:19:34;;;;;;;2.35;2.10;;;;;;;;;;4995708;28;93434;-78
2022/04/02 14:22:03;;;;;;;5.53;2.00;;;;;;;;;;4995869;28;93179;-78
2022/04/02 14:24:34;;;;;;;4.80;2.10;;;;;;;;;;4995829;28;92395;-79
2022/04/02 14:27:19;;;;;;;2.60;2.05;;;;;;;;;;4998864;28;93589;-77
2022/04/02 14:30:00;;;;;;;1.92;1.73;;;;;;;;;;4986709;28;91619;-78
2022/04/02 14:32:45;;;;;;;2.88;2.05;;;;;;;;;;4992394;28;92476;-81
2022/04/02 14:35:34;;;;;;;2.15;1.85;;;;;;;;;;4995553;28;94282;-79
2022/04/02 14:38:29;;;;;;;4.82;2.20;;;;;;;;;;5002851;28;94787;-79
2022/04/02 14:41:06;;;;;;;3.83;1.80;;;;;;;;;;4994093;28;94494;-79
2022/04/02 14:43:52;;;;;;;2.42;1.92;;;;;;;;;;4992331;28;94231;-81
2022/04/02 14:46:39;;;;;;;1.83;1.50;;;;;;;;;;4999189;28;92373;-80
2022/04/02 14:49:25;;;;;;;2.40;1.60;;;;;;;;;;4995351;28;92802;-80
2022/04/02 14:52:10;;;;;;;1.60;1.50;;;;;;;;;;4996840;28;95739;-80
2022/04/02 14:54:40;;;;;;;5.07;1.50;;;;;;;;;;4990686;28;94416;-80
2022/04/02 14:57:15;;;;;;;5.28;1.80;;;;;;;;;;4999405;28;93216;-78
2022/04/02 15:00:00;;;;;;;2.08;1.98;;;;;;;;;;4993850;28;92276;-81
2022/04/02 15:02:45;;;;;;;3.45;2.00;;;;;;;;;;4994327;28;93109;-77
2022/04/02 15:05:30;;;;;;;4.40;2.10;;;;;;;;;;4995355;28;95366;-79
2022/04/02 15:08:29;;;;;;;3.55;1.98;;;;;;;;;;4999017;28;92406;-80
2022/04/02 15:11:04;;;;;;;3.92;2.17;;;;;;;;;;4983945;28;94019;-79
2022/04/02 15:13:37;;;;;;;1.90;1.80;;;;;;;;;;4995719;28;93469;-77